NCAR-RAP Real-Time Weather Data

Output produced by METARs form (08 May 2021  17:01 UTC)
found at http://weather.rap.ucar.edu/surface/
 
KRNO 081555Z 00000KT 10SM CLR 10/M07 A3025 RMK AO2 SLP219 T01001072
KRNO 081455Z VRB04KT 10SM CLR 08/M08 A3025 RMK AO2 SLP218 T00831078 53014
KRNO 081355Z 00000KT 10SM CLR 07/M07 A3024 RMK AO2 SLP210 T00721067
KRNO 081255Z 33004KT 10SM CLR 06/M07 A3021 RMK AO2 SLP202 T00611067
KRNO 081155Z 36005KT 10SM CLR 07/M07 A3020 RMK AO2 SLP196 T00671072 10128 20067 53014
KRNO 081055Z 34004KT 10SM CLR 08/M08 A3019 RMK AO2 SLP188 T00831083
KRNO 080955Z 31006KT 10SM CLR 09/M09 A3017 RMK AO2 SLP180 T00891089
KRNO 080855Z 32013KT 10SM CLR 10/M09 A3016 RMK AO2 SLP174 T01001089 53004
KRNO 080755Z 34010KT 10SM CLR 11/M11 A3016 RMK AO2 SLP174 T01111106 402440111
KRNO 080655Z 34012KT 10SM FEW070 12/M12 A3014 RMK AO2 SLP169 T01221122
KRNO 080555Z 33009G14KT 10SM SCT070 13/M13 A3015 RMK AO2 SLP172 T01281128 10228 20128 51038
KRNO 080455Z 33009G17KT 10SM SCT075 14/M13 A3012 RMK AO2 SLP161 T01391128
KRNO 080355Z 33017KT 10SM FEW090 16/M12 A3006 RMK AO2 PK WND 35028/0321 SLP142 T01561122
KRNO 080255Z 33016G22KT 10SM FEW090 17/M06 A3002 RMK AO2 PK WND 34028/0239 WSHFT 0146 SLP131 T01721056 53015
KRNO 080206Z 33015KT 10SM FEW095 20/M02 A2999 RMK AO2 WSHFT 0146 T02001022
KRNO 080155Z 35020G23KT 10SM FEW085 20/M03 A2999 RMK AO2 SLP118 T02001028
KRNO 080055Z 26016G22KT 10SM FEW080 22/M10 A2998 RMK AO2 SLP112 T02171100
KRNO 072355Z 26013G18KT 10SM FEW075 23/M09 A2997 RMK AO2 SLP108 T02281094 10244 20189 55000
KRNO 072255Z 27017G24KT 10SM FEW065 23/M08 A2996 RMK AO2 PK WND 25026/2230 SLP105 T02281083
KRNO 072155Z 28015G21KT 240V300 10SM FEW060 24/M12 A2997 RMK AO2 SLP103 T02391117
KRNO 072055Z 25015KT 10SM FEW060 FEW150 24/M13 A2997 RMK AO2 SLP103 T02391128 56009
KRNO 071955Z 27016G21KT 10SM FEW060 FEW150 23/M12 A2997 RMK AO2 SLP103 T02331122
KRNO 071855Z 21007KT 10SM FEW060 21/M05 A2999 RMK AO2 SLP109 T02111050
KRNO 071755Z VRB03KT 10SM CLR 19/M04 A3000 RMK AO2 SLP116 T01891039 10189 20111 58009
KRNO 071655Z VRB04KT 10SM CLR 18/M01 A3001 RMK AO2 SLP122 T01781011
KRNO 071555Z 35006KT 10SM FEW200 16/M02 A3002 RMK AO2 SLP127 T01561017
KRNO 071455Z VRB04KT 10SM FEW200 13/M01 A3003 RMK AO2 SLP131 T01281011 53006
KRNO 071355Z 00000KT 10SM BKN200 11/M01 A3002 RMK AO2 SLP125 T01111011
KRNO 071255Z 00000KT 10SM BKN250 11/M01 A3000 RMK AO2 SLP117 T01111011
KRNO 071155Z 34003KT 10SM SCT250 12/M02 A3001 RMK AO2 SLP119 T01171022 10172 20117 55001
KRNO 071055Z 36004KT 10SM SCT250 13/M01 A3000 RMK AO2 SLP110 T01281011
KRNO 070955Z 04005KT 10SM BKN250 13/M03 A3001 RMK AO2 SLP113 T01331033
KRNO 070855Z 34004KT 10SM BKN250 14/M04 A3001 RMK AO2 SLP114 T01441039 50003
KRNO 070755Z 07005KT 10SM FEW100 BKN250 16/M04 A3002 RMK AO2 SLP115 T01561039 402830117
KRNO 070655Z VRB04KT 10SM FEW100 BKN250 17/M03 A3001 RMK AO2 SLP110 T01671033
KRNO 070555Z 00000KT 10SM FEW100 BKN250 17/M02 A3000 RMK AO2 SLP108 T01721022 10256 20172 50008
KRNO 070455Z VRB04KT 10SM FEW090 FEW150 BKN250 18/M01 A3001 RMK AO2 SLP110 T01781011
KRNO 070355Z COR 27010KT 10SM FEW100 BKN210 19/M02 A3000 RMK AO2 PK WND 27026/0301 SLP111 T01891017
KRNO 070255Z 23007KT 10SM FEW110 FEW160 BKN250 21/M03 A2998 RMK AO2 PK WND 29031/0230 SLP108 ACSL DSNT NE CCSL ALQDS T02061033 53002
KRNO 070155Z 29016G21KT 10SM FEW070 FEW110 FEW160 BKN250 23/M03 A2997 RMK AO2 SLP104 ACSL DSNT N CCSL ALQDS T02281033
KRNO 070055Z 23015G25KT 10SM FEW120 FEW170 FEW210 BKN250 25/M04 A2996 RMK AO2 PK WND 25030/2358 SLP100 T02501039
KRNO 062355Z 21015G28KT 10SM FEW120 SCT210 BKN250 25/M03 A2997 RMK AO2 PK WND 23030/2303 SLP103 CCSL VC W DSNT N AND S T02501028 10283 20250 57007
KRNO 062255Z 25022G29KT 9SM FEW110 SCT190 SCT250 27/M01 A2998 RMK AO2 PK WND 25029/2255 SLP102 ACSL DSNT NW THRU N T02721006
KRNO 062155Z 23015G29KT 10SM FEW120 FEW200 SCT250 28/M02 A2999 RMK AO2 PK WND 22033/2137 SLP102 ACSL DSNT NW THRU N T02831017
KRNO 062055Z 22016KT 10SM FEW110 BKN250 27/00 A2999 RMK AO2 SLP105 CCSL SW THRU NW T02720000 58009
KRNO 061955Z 21016G26KT 10SM FEW095 BKN250 27/00 A3001 RMK AO2 PK WND 19027/1913 SLP111 CCSL SW THRU NW T02720000
KRNO 061855Z 21014KT 10SM FEW090 BKN250 27/00 A3002 RMK AO2 PK WND 17028/1811 SLP112 CCSL DSNT S THRU NW T02670000
KRNO 061755Z 17020G28KT 10SM FEW085 FEW250 27/00 A3002 RMK AO2 PK WND 18034/1719 SLP110 CCSL DSNT S THRU W T02670000 10267 20117 56014